createdAt,value
2022-12-28T00:01:44.025Z,1.60
2022-12-28T00:04:15.291Z,1.60
2022-12-28T00:06:42.407Z,1.60
2022-12-28T00:09:12.746Z,1.60
2022-12-28T00:11:40.083Z,1.60
2022-12-28T00:14:07.370Z,1.60
2022-12-28T00:16:39.639Z,1.70
2022-12-28T00:19:12.698Z,1.70
2022-12-28T00:21:39.779Z,1.70
2022-12-28T00:24:07.720Z,1.70
2022-12-28T00:26:35.990Z,1.80
2022-12-28T00:29:05.710Z,1.80
2022-12-28T00:31:34.207Z,1.80
2022-12-28T00:34:02.094Z,1.80
2022-12-28T00:37:11.291Z,1.90
2022-12-28T00:39:16.264Z,1.90
2022-12-28T00:41:43.401Z,2.00
2022-12-28T00:44:11.061Z,2.00
2022-12-28T00:46:38.271Z,2.00
2022-12-28T00:49:05.314Z,2.10
2022-12-28T00:51:32.282Z,2.10
2022-12-28T00:53:59.353Z,2.10
2022-12-28T00:56:26.295Z,2.00
2022-12-28T00:58:58.516Z,2.00
2022-12-28T01:01:27.216Z,2.00
2022-12-28T01:03:57.118Z,2.00
2022-12-28T01:06:24.380Z,2.00
2022-12-28T01:08:51.735Z,1.90
2022-12-28T01:11:20.151Z,2.00
2022-12-28T01:13:48.292Z,2.00
2022-12-28T01:16:17.814Z,2.00
2022-12-28T01:18:46.069Z,2.00
2022-12-28T01:21:18.166Z,2.10
2022-12-28T01:23:46.735Z,2.20
2022-12-28T01:26:14.482Z,2.30
2022-12-28T01:28:41.838Z,2.30
2022-12-28T01:31:14.825Z,2.30
2022-12-28T01:33:42.554Z,2.30
2022-12-28T01:36:19.847Z,2.30
2022-12-28T01:38:48.216Z,2.30
2022-12-28T01:41:17.763Z,2.30
2022-12-28T01:43:46.970Z,2.30
2022-12-28T01:46:17.836Z,2.20
2022-12-28T01:49:16.947Z,2.10
2022-12-28T01:52:05.956Z,2.10
2022-12-28T01:54:42.665Z,2.00
2022-12-28T01:57:09.874Z,2.00
2022-12-28T01:59:42.046Z,1.90
2022-12-28T02:02:12.242Z,1.90
2022-12-28T02:04:39.533Z,1.90
2022-12-28T02:07:06.530Z,1.90
2022-12-28T02:09:39.359Z,1.80
2022-12-28T02:12:09.954Z,1.80
2022-12-28T02:14:37.493Z,1.80
2022-12-28T02:17:04.536Z,1.80
2022-12-28T02:19:51.832Z,1.90
2022-12-28T02:22:45.229Z,1.90
2022-12-28T02:25:34.292Z,1.90
2022-12-28T02:28:26.844Z,1.80
2022-12-28T02:31:04.999Z,1.70
2022-12-28T02:33:48.177Z,1.60
2022-12-28T02:36:22.644Z,1.50
2022-12-28T02:38:55.947Z,1.40
2022-12-28T02:41:25.742Z,1.40
2022-12-28T02:43:54.335Z,1.30
2022-12-28T02:46:49.981Z,1.30
2022-12-28T02:52:22.291Z,1.00
2022-12-28T02:55:21.761Z,0.80
2022-12-28T02:58:01.136Z,0.70
2022-12-28T03:00:37.647Z,0.50
2022-12-28T03:03:32.327Z,0.40
2022-12-28T03:06:30.239Z,0.30
2022-12-28T03:09:12.359Z,0.20
2022-12-28T03:11:46.599Z,0.00
2022-12-28T03:14:18.763Z,-0.10
2022-12-28T03:17:08.535Z,-0.10
2022-12-28T03:20:01.453Z,-0.30
2022-12-28T03:22:49.552Z,-0.40
2022-12-28T03:25:40.194Z,-0.50
2022-12-28T03:28:29.242Z,-0.60
2022-12-28T03:31:06.960Z,-0.70
2022-12-28T03:33:43.139Z,-0.70
2022-12-28T03:36:27.679Z,-0.80
2022-12-28T03:39:20.592Z,-0.90
2022-12-28T03:42:37.556Z,-0.90
2022-12-28T03:45:44.373Z,-0.90
2022-12-28T03:48:07.350Z,-1.00
2022-12-28T03:50:40.884Z,-1.00
2022-12-28T03:53:09.421Z,-1.00
2022-12-28T03:55:38.129Z,-0.90
2022-12-28T03:58:06.428Z,-0.80
2022-12-28T04:00:33.840Z,-0.80
2022-12-28T04:03:00.929Z,-0.70
2022-12-28T04:05:27.977Z,-0.70
2022-12-28T04:07:55.094Z,-0.60
2022-12-28T04:10:22.766Z,-0.40
2022-12-28T04:12:54.484Z,-0.40
2022-12-28T04:15:21.503Z,-0.30
2022-12-28T04:17:48.470Z,-0.30
2022-12-28T04:20:15.495Z,-0.30
2022-12-28T04:22:42.434Z,-0.30
2022-12-28T04:25:09.670Z,-0.40
2022-12-28T04:27:37.139Z,-0.40
2022-12-28T04:30:05.202Z,-0.50
2022-12-28T04:32:32.166Z,-0.60
2022-12-28T04:34:59.131Z,-0.70
2022-12-28T04:37:26.122Z,-0.80
2022-12-28T04:39:55.853Z,-0.80
2022-12-28T04:42:25.196Z,-0.90
2022-12-28T04:44:52.731Z,-1.00
2022-12-28T04:47:19.768Z,-1.10
2022-12-28T04:49:46.812Z,-1.10
2022-12-28T04:52:14.151Z,-1.20
2022-12-28T04:54:41.096Z,-1.20
2022-12-28T04:57:08.052Z,-1.20
2022-12-28T04:59:35.211Z,-1.20
2022-12-28T05:02:12.342Z,-1.10
2022-12-28T05:04:39.343Z,-1.00
2022-12-28T05:07:06.367Z,-1.00
2022-12-28T05:09:33.340Z,-0.90
2022-12-28T05:12:00.321Z,-0.90
2022-12-28T05:14:28.937Z,-0.90
2022-12-28T05:16:59.364Z,-0.90
2022-12-28T05:19:26.398Z,-1.00
2022-12-28T05:21:53.344Z,-1.00
2022-12-28T05:24:20.590Z,-1.00
2022-12-28T05:26:47.734Z,-1.10
2022-12-28T05:29:14.724Z,-1.00
2022-12-28T05:31:41.679Z,-1.00
2022-12-28T05:34:08.630Z,-1.00
2022-12-28T05:36:38.130Z,-1.10
2022-12-28T05:39:05.504Z,-1.10
2022-12-28T05:41:32.469Z,-1.10
2022-12-28T05:44:00.172Z,-1.20
2022-12-28T05:46:29.741Z,-1.30
2022-12-28T05:48:57.149Z,-1.30
2022-12-28T05:51:26.918Z,-1.30
2022-12-28T05:53:54.342Z,-1.20
2022-12-28T05:56:23.923Z,-1.30
2022-12-28T05:58:56.553Z,-1.20
2022-12-28T06:01:25.756Z,-1.20
2022-12-28T06:03:56.781Z,-1.20
2022-12-28T06:06:23.997Z,-1.20
2022-12-28T06:08:51.020Z,-1.20
2022-12-28T06:11:20.707Z,-1.20
2022-12-28T06:13:48.388Z,-1.20
2022-12-28T06:16:26.988Z,-1.20
2022-12-28T06:18:54.526Z,-1.20
2022-12-28T06:21:30.356Z,-1.10
2022-12-28T06:23:59.356Z,-1.00
2022-12-28T06:26:28.495Z,-1.00
2022-12-28T06:28:56.265Z,-1.00
2022-12-28T06:31:25.735Z,-0.90
2022-12-28T06:33:55.062Z,-1.00
2022-12-28T06:36:27.433Z,-1.00
2022-12-28T06:38:56.935Z,-1.00
2022-12-28T06:41:24.972Z,-0.90
2022-12-28T06:43:52.506Z,-0.80
2022-12-28T06:46:21.934Z,-0.80
2022-12-28T06:48:49.154Z,-0.70
2022-12-28T06:51:19.050Z,-0.60
2022-12-28T06:53:47.016Z,-0.50
2022-12-28T06:56:18.144Z,-0.40
2022-12-28T06:58:46.043Z,-0.40
2022-12-28T07:01:22.929Z,-0.30
2022-12-28T07:03:52.358Z,-0.20
2022-12-28T07:06:21.104Z,-0.10
2022-12-28T07:08:49.789Z,-0.10
2022-12-28T07:11:21.498Z,0.00
2022-12-28T07:13:48.891Z,0.00
2022-12-28T07:16:26.927Z,0.10
2022-12-28T07:18:54.160Z,0.20
2022-12-28T07:21:24.276Z,0.20
2022-12-28T07:23:53.060Z,0.30
2022-12-28T07:26:23.826Z,0.40
2022-12-28T07:28:51.592Z,0.50
2022-12-28T07:31:24.093Z,0.60
2022-12-28T07:33:52.709Z,0.70
2022-12-28T07:36:21.294Z,0.80
2022-12-28T07:38:48.810Z,0.90
2022-12-28T07:41:18.293Z,1.00
2022-12-28T07:43:45.836Z,1.10
2022-12-28T07:46:15.705Z,1.20
2022-12-28T07:48:43.896Z,1.20
2022-12-28T07:51:19.357Z,1.20
2022-12-28T07:53:48.174Z,1.20
2022-12-28T07:56:16.053Z,1.20
2022-12-28T08:01:10.775Z,1.10
2022-12-28T08:03:38.533Z,1.10
2022-12-28T08:06:06.393Z,1.00
2022-12-28T08:08:44.428Z,1.00
2022-12-28T08:11:19.592Z,1.10
2022-12-28T08:13:48.859Z,1.10
2022-12-28T08:16:18.702Z,1.20
2022-12-28T08:18:47.003Z,1.20
2022-12-28T08:21:20.191Z,1.20
2022-12-28T08:23:48.017Z,1.20
2022-12-28T08:26:16.430Z,1.20
2022-12-28T08:28:45.319Z,1.20
2022-12-28T08:31:17.953Z,1.20
2022-12-28T08:33:45.246Z,1.20
2022-12-28T08:36:12.760Z,1.20
2022-12-28T08:38:41.337Z,1.20
2022-12-28T08:41:11.669Z,1.20
2022-12-28T08:43:38.746Z,1.30
2022-12-28T08:46:08.927Z,1.50
2022-12-28T08:48:36.012Z,1.70
2022-12-28T08:51:06.319Z,1.80
2022-12-28T08:53:33.706Z,2.00
2022-12-28T08:56:24.265Z,2.10
2022-12-28T08:58:52.197Z,2.20
2022-12-28T09:01:22.751Z,2.20
2022-12-28T09:03:52.479Z,2.30
2022-12-28T09:06:23.198Z,2.40
2022-12-28T09:09:07.568Z,2.50
2022-12-28T09:11:39.002Z,2.70
2022-12-28T09:14:11.513Z,2.70
2022-12-28T09:16:40.800Z,2.70
2022-12-28T09:19:12.061Z,2.80
2022-12-28T09:21:39.840Z,2.80
2022-12-28T09:24:07.299Z,2.80
2022-12-28T09:26:38.811Z,2.90
2022-12-28T09:29:09.039Z,2.90
2022-12-28T09:31:37.558Z,2.80
2022-12-28T09:36:58.700Z,2.70
2022-12-28T09:39:25.752Z,2.60
2022-12-28T09:42:15.410Z,2.60
2022-12-28T09:45:42.719Z,2.70
2022-12-28T09:48:16.459Z,2.80
2022-12-28T09:50:44.080Z,3.10
2022-12-28T09:53:23.376Z,3.30
2022-12-28T09:56:16.652Z,3.50
2022-12-28T09:58:47.849Z,3.70
2022-12-28T10:01:18.059Z,3.80
2022-12-28T10:03:47.373Z,3.90
2022-12-28T10:06:25.146Z,3.90
2022-12-28T10:08:54.862Z,3.80
2022-12-28T10:11:39.324Z,3.80
2022-12-28T10:14:34.640Z,3.70
2022-12-28T10:17:03.108Z,3.70
2022-12-28T10:19:30.313Z,3.60
2022-12-28T10:21:57.196Z,3.60
2022-12-28T10:24:32.789Z,3.70
2022-12-28T10:27:04.076Z,3.70
2022-12-28T10:29:32.083Z,3.60
2022-12-28T10:32:05.335Z,3.60
2022-12-28T10:34:37.895Z,3.60
2022-12-28T10:37:16.223Z,3.60
2022-12-28T10:40:04.377Z,3.50
2022-12-28T10:42:43.747Z,3.50
2022-12-28T10:45:38.240Z,3.40
2022-12-28T10:48:33.204Z,3.30
2022-12-28T10:51:18.213Z,3.20
2022-12-28T10:53:56.497Z,3.20
2022-12-28T10:56:31.540Z,3.10
2022-12-28T10:59:10.797Z,2.90
2022-12-28T11:01:38.211Z,2.80
2022-12-28T11:04:17.700Z,2.80
2022-12-28T11:06:55.605Z,2.80
2022-12-28T11:09:25.183Z,2.80
2022-12-28T11:11:54.207Z,2.80
2022-12-28T11:14:21.103Z,2.80
2022-12-28T11:16:48.275Z,2.80
2022-12-28T11:19:15.750Z,2.70
2022-12-28T11:21:44.429Z,2.60
2022-12-28T11:24:14.434Z,2.60
2022-12-28T11:26:45.607Z,2.60
2022-12-28T11:29:15.318Z,2.60
2022-12-28T11:34:31.249Z,2.50
2022-12-28T11:36:58.809Z,2.40
2022-12-28T11:39:25.988Z,2.40
2022-12-28T11:42:41.479Z,2.30
2022-12-28T11:44:59.985Z,2.30
2022-12-28T11:47:35.631Z,2.40
2022-12-28T11:50:39.892Z,2.40
2022-12-28T11:53:43.230Z,2.40
2022-12-28T11:56:12.479Z,2.40
2022-12-28T11:58:46.367Z,2.40
2022-12-28T12:01:29.497Z,2.40
2022-12-28T12:04:05.224Z,2.40
2022-12-28T12:06:44.879Z,2.40
2022-12-28T12:09:30.805Z,2.50
2022-12-28T12:11:59.739Z,2.50
2022-12-28T12:14:40.727Z,2.40
2022-12-28T12:17:13.505Z,2.50
2022-12-28T12:19:47.881Z,2.40
2022-12-28T12:22:25.272Z,2.40
2022-12-28T12:25:49.747Z,2.50
2022-12-28T12:28:31.626Z,2.50
2022-12-28T12:31:00.753Z,2.40
2022-12-28T12:33:37.949Z,2.40
2022-12-28T12:36:22.980Z,2.40
2022-12-28T12:39:43.615Z,2.50
2022-12-28T12:42:10.558Z,2.50
2022-12-28T12:45:10.362Z,2.50
2022-12-28T12:47:53.560Z,2.50
2022-12-28T12:50:46.843Z,2.60
2022-12-28T12:53:32.446Z,2.50
2022-12-28T12:56:11.057Z,2.50
2022-12-28T12:59:01.249Z,2.50
2022-12-28T13:01:39.779Z,2.40
2022-12-28T13:04:14.909Z,2.40
2022-12-28T13:06:43.055Z,2.30
2022-12-28T13:09:20.068Z,2.30
2022-12-28T13:11:48.399Z,2.30
2022-12-28T13:14:20.949Z,2.30
2022-12-28T13:16:56.372Z,2.30
2022-12-28T13:19:28.885Z,2.20
2022-12-28T13:21:59.280Z,2.20
2022-12-28T13:24:27.551Z,2.20
2022-12-28T13:26:59.817Z,2.20
2022-12-28T13:29:30.810Z,2.20
2022-12-28T13:31:57.803Z,2.20
2022-12-28T13:34:29.139Z,2.30
2022-12-28T13:37:02.587Z,2.20
2022-12-28T13:39:39.934Z,2.20
2022-12-28T13:42:17.115Z,2.20
2022-12-28T13:45:02.741Z,2.20
2022-12-28T13:47:36.404Z,2.10
2022-12-28T13:50:13.352Z,2.10
2022-12-28T13:53:08.074Z,2.10
2022-12-28T13:55:39.908Z,2.10
2022-12-28T13:58:17.552Z,2.10
2022-12-28T14:00:49.870Z,2.10
2022-12-28T14:03:19.088Z,2.10
2022-12-28T14:05:49.838Z,2.00
2022-12-28T14:08:18.070Z,2.10
2022-12-28T14:10:47.669Z,2.00
2022-12-28T14:13:15.517Z,2.00
2022-12-28T14:15:43.211Z,2.00
2022-12-28T14:18:15.176Z,2.00
2022-12-28T14:20:53.928Z,1.90
2022-12-28T14:23:26.417Z,1.90
2022-12-28T14:25:56.141Z,1.90
2022-12-28T14:28:35.437Z,1.90
2022-12-28T14:31:04.548Z,1.90
2022-12-28T14:33:36.701Z,1.90
2022-12-28T14:36:07.121Z,1.90
2022-12-28T14:38:35.564Z,1.90
2022-12-28T14:41:03.281Z,1.90
2022-12-28T14:43:34.027Z,1.80
2022-12-28T14:46:29.178Z,1.80
2022-12-28T14:48:56.357Z,1.80
2022-12-28T14:51:31.567Z,1.70
2022-12-28T14:54:17.414Z,1.70
2022-12-28T14:57:00.825Z,1.70
2022-12-28T14:59:34.542Z,1.60
2022-12-28T15:02:07.390Z,1.60
2022-12-28T15:04:40.676Z,1.60
2022-12-28T15:07:10.419Z,1.60
2022-12-28T15:09:37.945Z,1.50
2022-12-28T15:12:09.893Z,1.50
2022-12-28T15:14:37.276Z,1.50
2022-12-28T15:17:04.783Z,1.50
2022-12-28T15:19:31.879Z,1.50
2022-12-28T15:21:59.136Z,1.40
2022-12-28T15:24:33.566Z,1.40
2022-12-28T15:27:01.752Z,1.40
2022-12-28T15:29:55.573Z,1.40
2022-12-28T15:32:17.123Z,1.40
2022-12-28T15:34:44.065Z,1.40
2022-12-28T15:37:11.034Z,1.40
2022-12-28T15:39:38.011Z,1.40
2022-12-28T15:42:05.034Z,1.40
2022-12-28T15:44:31.996Z,1.40
2022-12-28T15:46:59.041Z,1.40
2022-12-28T15:49:26.679Z,1.40
2022-12-28T15:51:53.845Z,1.40
2022-12-28T15:54:20.791Z,1.30
2022-12-28T15:56:53.269Z,1.30
2022-12-28T15:59:20.559Z,1.30
2022-12-28T16:01:48.282Z,1.30
2022-12-28T16:04:15.734Z,1.30
2022-12-28T16:06:44.852Z,1.20
2022-12-28T16:09:13.781Z,1.20
2022-12-28T16:11:41.681Z,1.20
2022-12-28T16:16:45.147Z,1.20
2022-12-28T16:19:14.343Z,1.20
2022-12-28T16:21:42.097Z,1.10
2022-12-28T16:24:10.313Z,1.10
2022-12-28T16:26:37.457Z,1.10
2022-12-28T16:29:04.698Z,1.10
2022-12-28T16:31:34.144Z,1.10
2022-12-28T16:34:28.444Z,1.10
2022-12-28T16:36:58.488Z,1.10
2022-12-28T16:39:28.073Z,1.10
2022-12-28T16:41:55.599Z,1.10
2022-12-28T16:44:24.825Z,1.20
2022-12-28T16:46:52.214Z,1.20
2022-12-28T16:49:19.168Z,1.20
2022-12-28T16:51:47.430Z,1.20
2022-12-28T16:54:18.751Z,1.10
2022-12-28T16:56:47.085Z,1.20
2022-12-28T16:59:17.421Z,1.20
2022-12-28T17:01:44.913Z,1.20
2022-12-28T17:04:12.651Z,1.20
2022-12-28T17:06:41.173Z,1.20
2022-12-28T17:09:08.927Z,1.30
2022-12-28T17:11:36.066Z,1.30
2022-12-28T17:14:17.461Z,1.20
2022-12-28T17:16:51.652Z,1.30
2022-12-28T17:19:18.723Z,1.30
2022-12-28T17:21:45.674Z,1.20
2022-12-28T17:24:12.606Z,1.20
2022-12-28T17:26:39.651Z,1.20
2022-12-28T17:29:06.623Z,1.20
2022-12-28T17:31:33.904Z,1.20
2022-12-28T17:34:01.266Z,1.20
2022-12-28T17:36:28.561Z,1.10
2022-12-28T17:38:55.529Z,1.10
2022-12-28T17:41:25.198Z,1.10
2022-12-28T17:43:54.895Z,1.10
2022-12-28T17:46:22.779Z,1.10
2022-12-28T17:48:52.752Z,1.10
2022-12-28T17:51:20.509Z,1.10
2022-12-28T17:53:47.806Z,1.10
2022-12-28T17:56:15.803Z,1.10
2022-12-28T17:58:44.696Z,1.10
2022-12-28T18:01:13.442Z,1.10
2022-12-28T18:03:41.298Z,1.00
2022-12-28T18:06:08.428Z,1.10
2022-12-28T18:08:35.441Z,1.10
2022-12-28T18:11:03.036Z,1.10
2022-12-28T18:13:30.473Z,1.10
2022-12-28T18:15:57.727Z,1.10
2022-12-28T18:18:24.818Z,1.10
2022-12-28T18:21:10.814Z,1.10
2022-12-28T18:23:37.824Z,1.10
2022-12-28T18:26:13.032Z,1.10
2022-12-28T18:28:54.597Z,1.10
2022-12-28T18:31:21.652Z,1.10
2022-12-28T18:33:49.006Z,1.10
2022-12-28T18:36:17.929Z,1.10
2022-12-28T18:38:46.735Z,1.10
2022-12-28T18:41:16.714Z,1.10
2022-12-28T18:43:44.256Z,1.20
2022-12-28T18:46:11.426Z,1.20
2022-12-28T18:48:40.424Z,1.20
2022-12-28T18:51:15.928Z,1.20
2022-12-28T18:53:43.768Z,1.20
2022-12-28T18:56:15.929Z,1.10
2022-12-28T18:58:43.486Z,1.20
2022-12-28T19:01:55.835Z,1.10
2022-12-28T19:04:11.737Z,1.20
2022-12-28T19:06:39.355Z,1.20
2022-12-28T19:09:07.646Z,1.20
2022-12-28T19:11:36.455Z,1.20
2022-12-28T19:14:05.007Z,1.20
2022-12-28T19:16:32.491Z,1.20
2022-12-28T19:19:00.644Z,1.20
2022-12-28T19:21:29.085Z,1.20
2022-12-28T19:23:58.910Z,1.20
2022-12-28T19:28:55.014Z,1.20
2022-12-28T19:31:22.019Z,1.30
2022-12-28T19:33:49.237Z,1.30
2022-12-28T19:36:16.454Z,1.30
2022-12-28T19:38:43.731Z,1.30
2022-12-28T19:41:15.852Z,1.30
2022-12-28T19:43:44.120Z,1.30
2022-12-28T19:46:13.117Z,1.30
2022-12-28T19:48:40.225Z,1.30
2022-12-28T19:51:07.638Z,1.30
2022-12-28T19:53:34.716Z,1.30
2022-12-28T19:56:07.701Z,1.30
2022-12-28T19:58:36.237Z,1.30
2022-12-28T20:01:29.524Z,1.40
2022-12-28T20:03:56.755Z,1.30
2022-12-28T20:06:30.208Z,1.30
2022-12-28T20:08:59.450Z,1.30
2022-12-28T20:11:27.717Z,1.30
2022-12-28T20:13:57.750Z,1.30
2022-12-28T20:16:27.180Z,1.30
2022-12-28T20:18:55.382Z,1.30
2022-12-28T20:21:32.680Z,1.30
2022-12-28T20:24:01.728Z,1.30
2022-12-28T20:26:29.407Z,1.30
2022-12-28T20:29:00.623Z,1.30
2022-12-28T20:31:28.185Z,1.30
2022-12-28T20:33:56.503Z,1.20
2022-12-28T20:36:26.651Z,1.20
2022-12-28T20:38:57.104Z,1.20
2022-12-28T20:41:45.865Z,1.20
2022-12-28T20:44:22.087Z,1.30
2022-12-28T20:46:49.366Z,1.20
2022-12-28T20:49:16.340Z,1.20
2022-12-28T20:51:43.484Z,1.30
2022-12-28T20:54:10.989Z,1.30
2022-12-28T20:56:38.773Z,1.30
2022-12-28T20:59:06.265Z,1.30
2022-12-28T21:01:35.461Z,1.20
2022-12-28T21:04:02.924Z,1.20
2022-12-28T21:06:30.116Z,1.30
2022-12-28T21:08:57.301Z,1.20
2022-12-28T21:11:24.581Z,1.30
2022-12-28T21:13:51.514Z,1.20
2022-12-28T21:16:18.759Z,1.30
2022-12-28T21:18:45.958Z,1.40
2022-12-28T21:21:21.945Z,1.40
2022-12-28T21:23:49.353Z,1.40
2022-12-28T21:26:19.145Z,1.40
2022-12-28T21:28:47.088Z,1.40
2022-12-28T21:31:14.515Z,1.40
2022-12-28T21:33:42.069Z,1.40
2022-12-28T21:36:14.643Z,1.40
2022-12-28T21:38:42.820Z,1.40
2022-12-28T21:41:15.160Z,1.40
2022-12-28T21:43:42.661Z,1.40
2022-12-28T21:46:14.923Z,1.40
2022-12-28T21:48:42.610Z,1.50
2022-12-28T21:51:31.456Z,1.50
2022-12-28T21:54:07.390Z,1.60
2022-12-28T21:56:35.708Z,1.50
2022-12-28T21:59:03.722Z,1.50
2022-12-28T22:01:50.173Z,1.50
2022-12-28T22:04:39.675Z,1.50
2022-12-28T22:07:08.805Z,1.50
2022-12-28T22:09:55.356Z,1.50
2022-12-28T22:12:36.109Z,1.50
2022-12-28T22:15:31.051Z,1.50
2022-12-28T22:18:01.080Z,1.50
2022-12-28T22:20:29.194Z,1.60
2022-12-28T22:22:58.826Z,1.60
2022-12-28T22:25:26.874Z,1.70
2022-12-28T22:27:53.867Z,1.60
2022-12-28T22:30:20.924Z,1.70
2022-12-28T22:32:47.885Z,1.70
2022-12-28T22:35:15.256Z,1.60
2022-12-28T22:37:42.920Z,1.60
2022-12-28T22:40:11.452Z,1.60
2022-12-28T22:42:43.065Z,1.60
2022-12-28T22:45:15.721Z,1.50
2022-12-28T22:47:43.423Z,1.60
2022-12-28T22:50:15.882Z,1.60
2022-12-28T22:52:43.098Z,1.60
2022-12-28T22:55:10.586Z,1.60
2022-12-28T22:57:37.894Z,1.60
2022-12-28T23:00:07.753Z,1.60
2022-12-28T23:02:34.956Z,1.60
2022-12-28T23:05:02.247Z,1.60
2022-12-28T23:07:32.418Z,1.60
2022-12-28T23:09:59.362Z,1.60
2022-12-28T23:12:29.866Z,1.60
2022-12-28T23:15:15.482Z,1.60
2022-12-28T23:17:42.696Z,1.60
2022-12-28T23:20:32.757Z,1.60
2022-12-28T23:23:18.296Z,1.60
2022-12-28T23:26:03.859Z,1.60
2022-12-28T23:28:30.921Z,1.60
2022-12-28T23:30:58.844Z,1.60
2022-12-28T23:33:25.831Z,1.60
2022-12-28T23:35:59.767Z,1.60
2022-12-28T23:38:26.907Z,1.60
2022-12-28T23:41:13.953Z,1.60
2022-12-28T23:43:40.956Z,1.60
2022-12-28T23:46:07.991Z,1.60
2022-12-28T23:48:35.042Z,1.60
2022-12-28T23:51:08.410Z,1.60
2022-12-28T23:53:36.007Z,1.60
2022-12-28T23:56:03.011Z,1.50
2022-12-28T23:58:30.028Z,1.60
